Time;durP1;ratioP1;P1;durP2;ratioP2;P2;SDS_P1;SDS_P2;PMS_P1;PMS_P2;Temp;Humidity;BMP_temperature;BMP_pressure;BME280_temperature;BME280_humidity;BME280_pressure;Samples;Min_cycle;Max_cycle;Signal;HPM_P1;HPM_P2
2023/08/22 00:01:20;;;;;;;5.07;1.02;;;13.10;99.90;;;12.07;100.00;101751.94;4939796;28;20757;-72
2023/08/22 00:03:47;;;;;;;4.65;1.02;;;13.10;99.90;;;12.04;100.00;101745.91;4943084;28;20563;-72
2023/08/22 00:06:13;;;;;;;14.70;4.70;;;13.10;99.90;;;12.03;100.00;101741.53;4941148;28;20503;-73
2023/08/22 00:08:38;;;;;;;15.05;4.10;;;13.10;99.90;;;12.05;100.00;101740.56;4942176;28;20188;-72
2023/08/22 00:11:04;;;;;;;12.82;3.10;;;13.10;99.90;;;12.07;100.00;101744.03;4942715;28;20066;-73
2023/08/22 00:13:31;;;;;;;13.05;4.65;;;13.10;99.90;;;12.08;100.00;101743.09;4925492;28;20070;-73
2023/08/22 00:16:00;;;;;;;16.02;5.10;;;13.20;99.90;;;12.14;100.00;101749.94;4932980;28;20038;-72
2023/08/22 00:18:27;;;;;;;9.88;4.10;;;13.20;99.90;;;12.19;100.00;101744.47;4928423;28;20031;-73
2023/08/22 00:20:53;;;;;;;23.17;6.03;;;13.30;99.90;;;12.24;100.00;101745.16;4943170;28;20123;-73
2023/08/22 00:23:19;;;;;;;12.85;4.88;;;13.30;99.90;;;12.26;100.00;101740.69;4965212;28;20027;-73
2023/08/22 00:25:44;;;;;;;13.23;4.88;;;13.30;99.90;;;12.26;100.00;101748.59;4943371;28;20154;-73
2023/08/22 00:28:10;;;;;;;13.75;5.00;;;13.30;99.90;;;12.20;100.00;101733.88;4944565;28;20062;-73
2023/08/22 00:30:36;;;;;;;19.85;4.75;;;13.30;99.90;;;12.20;100.00;101725.94;4944969;28;20121;-73
2023/08/22 00:33:02;;;;;;;25.40;5.30;;;13.30;99.90;;;12.23;100.00;101725.81;4947218;28;20047;-73
2023/08/22 00:35:28;;;;;;;12.60;3.75;;;13.30;99.90;;;12.26;100.00;101724.84;4944229;28;20034;-73
2023/08/22 00:37:54;;;;;;;17.23;5.07;;;13.30;99.90;;;12.28;100.00;101723.00;4962645;28;20123;-73
2023/08/22 00:40:20;;;;;;;22.55;5.55;;;13.30;99.90;;;12.23;100.00;101730.25;4946753;28;20031;-73
2023/08/22 00:42:46;;;;;;;13.90;5.05;;;13.30;99.90;;;12.17;100.00;101725.19;4960198;28;20110;-73
2023/08/22 00:45:11;;;;;;;20.05;4.90;;;13.20;99.90;;;12.13;100.00;101721.78;4960170;28;20062;-73
2023/08/22 00:47:37;;;;;;;16.27;3.97;;;13.20;99.90;;;12.13;100.00;101720.94;4948025;28;20105;-73
2023/08/22 00:50:04;;;;;;;8.43;2.42;;;13.20;99.90;;;12.11;100.00;101718.34;4934085;28;20035;-73
2023/08/22 00:52:31;;;;;;;39.42;2.53;;;13.20;99.90;;;12.04;100.00;101715.06;4945212;28;20038;-73
2023/08/22 00:54:57;;;;;;;5.30;1.80;;;13.00;99.90;;;11.90;100.00;101717.38;4946891;28;20043;-73
2023/08/22 00:57:22;;;;;;;10.15;1.40;;;12.90;99.90;;;11.81;100.00;101717.66;4945330;28;20094;-74
2023/08/22 00:59:49;;;;;;;1.38;0.60;;;12.90;99.90;;;11.73;100.00;101717.94;4943226;28;20495;-73
2023/08/22 01:02:14;;;;;;;2.75;0.88;;;12.80;99.90;;;11.70;100.00;101718.03;4943063;28;20031;-74
2023/08/22 01:04:40;;;;;;;8.15;1.75;;;12.80;99.90;;;11.67;100.00;101737.47;4962530;28;20314;-73
2023/08/22 01:07:25;;;;;;;4.93;0.90;;;12.70;99.90;;;11.62;100.00;101734.16;4958994;28;20058;-73
2023/08/22 01:09:59;;;;;;;1.95;0.88;;;12.70;99.90;;;11.53;100.00;101723.06;4945339;28;20030;-73
2023/08/22 01:12:49;;;;;;;6.80;2.47;;;12.60;99.90;;;11.47;100.00;101717.09;4961719;28;20405;-74
2023/08/22 01:15:35;;;;;;;5.40;1.60;;;12.50;99.90;;;11.42;100.00;101711.09;4958315;28;20415;-73
2023/08/22 01:18:05;;;;;;;6.20;2.30;;;12.40;99.90;;;11.39;100.00;101705.06;4942445;28;20022;-73
2023/08/22 01:20:31;;;;;;;11.95;2.47;;;12.50;99.90;;;11.41;100.00;101700.63;4944110;28;20646;-73
2023/08/22 01:22:58;;;;;;;5.78;2.10;;;12.50;99.90;;;11.47;100.00;101711.81;4942648;28;20034;-73
2023/08/22 01:25:25;;;;;;;6.43;2.00;;;12.50;99.90;;;11.51;100.00;101702.00;4960576;28;20114;-73
2023/08/22 01:28:08;;;;;;;7.45;2.30;;;12.60;99.90;;;11.51;100.00;101704.63;4939862;28;20024;-73
2023/08/22 01:31:28;;;;;;;31.70;2.20;;;12.50;99.90;;;11.43;100.00;101706.69;4946578;28;20125;-73
2023/08/22 01:34:14;;;;;;;1.33;0.60;;;12.50;99.90;;;11.31;100.00;101707.09;4961851;28;20447;-73
2023/08/22 01:36:42;;;;;;;3.55;0.50;;;12.30;99.90;;;11.20;100.00;101700.41;4943126;28;20034;-73
2023/08/22 01:39:09;;;;;;;1.05;0.63;;;12.30;99.90;;;11.15;100.00;101701.50;4924128;28;20035;-73
2023/08/22 01:41:37;;;;;;;1.52;0.68;;;12.30;99.90;;;11.11;100.00;101702.50;4942873;28;20032;-73
2023/08/22 01:44:03;;;;;;;2.25;0.90;;;12.20;99.90;;;11.08;100.00;101706.13;4943021;28;20067;-73
2023/08/22 01:46:30;;;;;;;6.03;1.52;;;12.20;99.90;;;11.06;100.00;101694.75;4940848;28;20106;-73
2023/08/22 01:48:56;;;;;;;10.88;1.77;;;12.10;99.90;;;11.08;100.00;101690.31;4956695;28;20027;-73
2023/08/22 01:51:21;;;;;;;7.28;2.08;;;12.10;99.90;;;11.11;100.00;101692.81;4944675;28;20030;-73
2023/08/22 01:53:50;;;;;;;8.15;2.92;;;12.10;99.90;;;11.11;100.00;101692.81;4928447;28;20038;-73
2023/08/22 01:56:15;;;;;;;4.93;1.48;;;12.10;99.90;;;11.08;100.00;101703.47;4946395;28;21160;-73
2023/08/22 01:58:41;;;;;;;5.72;1.98;;;12.20;99.90;;;11.06;100.00;101713.22;4944903;28;20043;-73
2023/08/22 02:01:11;;;;;;;9.98;1.67;;;12.10;99.90;;;11.05;100.00;101714.09;4961935;28;20093;-74
2023/08/22 02:03:43;;;;;;;10.48;2.60;;;12.10;99.90;;;11.05;100.00;101699.16;4940199;28;20068;-72
2023/08/22 02:06:09;;;;;;;13.02;3.67;;;12.10;99.90;;;11.09;100.00;101687.59;4942850;28;20023;-73
2023/08/22 02:08:35;;;;;;;9.73;2.60;;;12.10;99.90;;;11.09;100.00;101687.59;4941405;28;20093;-73
2023/08/22 02:11:01;;;;;;;5.90;2.05;;;12.10;99.90;;;11.08;100.00;101691.16;4943537;28;20027;-73
2023/08/22 02:13:27;;;;;;;41.40;2.97;;;12.10;99.90;;;11.00;100.00;101689.69;4942394;28;20169;-73
2023/08/22 02:15:53;;;;;;;20.90;5.45;;;12.10;99.90;;;10.95;100.00;101667.88;4941326;28;20582;-73
2023/08/22 02:18:19;;;;;;;17.45;4.50;;;12.10;99.90;;;10.98;100.00;101673.06;4940637;28;20093;-73
2023/08/22 02:20:51;;;;;;;10.85;3.10;;;12.10;99.90;;;11.02;100.00;101675.53;4944444;28;20038;-73
2023/08/22 02:23:16;;;;;;;16.88;3.67;;;12.10;99.90;;;11.06;100.00;101677.16;4942435;28;20023;-73
2023/08/22 02:25:42;;;;;;;9.05;1.67;;;12.10;99.90;;;11.05;100.00;101671.94;4941892;28;20419;-73
2023/08/22 02:28:09;;;;;;;3.70;0.90;;;12.10;99.90;;;11.01;100.00;101679.06;4939180;28;20094;-73
2023/08/22 02:30:35;;;;;;;23.65;6.97;;;12.10;99.90;;;10.99;100.00;101657.22;4959100;28;20102;-73
2023/08/22 02:33:03;;;;;;;15.63;7.07;;;12.10;99.90;;;11.07;100.00;101664.84;4960715;28;20038;-73
2023/08/22 02:35:28;;;;;;;22.08;7.07;;;12.10;99.90;;;11.15;100.00;101665.44;4943360;28;20059;-73
2023/08/22 02:37:54;;;;;;;30.45;9.85;;;12.20;99.90;;;11.23;100.00;101660.78;4938707;28;20579;-73
2023/08/22 02:40:20;;;;;;;24.25;10.05;;;12.30;99.90;;;11.29;100.00;101665.84;4942966;28;20462;-73
2023/08/22 02:42:46;;;;;;;17.27;4.97;;;12.40;99.90;;;11.35;100.00;101666.53;4959235;28;20507;-73
2023/08/22 02:45:11;;;;;;;14.65;3.50;;;12.40;99.90;;;11.32;100.00;101664.88;4956884;28;20331;-73
2023/08/22 02:47:37;;;;;;;57.33;3.40;;;12.40;99.90;;;11.25;100.00;101674.78;4941131;28;20109;-73
2023/08/22 02:50:06;;;;;;;19.50;2.72;;;12.20;99.90;;;11.10;100.00;101677.94;4959711;28;20066;-73
2023/08/22 02:52:32;;;;;;;6.28;1.67;;;12.10;99.90;;;11.00;100.00;101672.09;4943027;28;20045;-74
2023/08/22 02:54:58;;;;;;;7.93;3.17;;;12.10;99.90;;;10.92;100.00;101670.63;4939522;28;20031;-73
2023/08/22 02:57:24;;;;;;;8.15;3.20;;;12.00;99.90;;;10.91;100.00;101677.69;4943921;28;20082;-73
2023/08/22 02:59:50;;;;;;;15.30;6.57;;;12.00;99.90;;;10.92;100.00;101678.53;4940531;28;20800;-73
2023/08/22 03:02:15;;;;;;;14.10;4.22;;;12.00;99.90;;;10.95;100.00;101678.41;4942799;28;20616;-73
2023/08/22 03:04:41;;;;;;;20.23;8.18;;;12.00;99.90;;;10.97;100.00;101680.13;4940451;23;20558;-77
2023/08/22 03:07:09;;;;;;;16.10;5.50;;;12.00;99.90;;;11.00;100.00;101684.41;4962552;28;20031;-76
2023/08/22 03:09:37;;;;;;;7.88;4.10;;;12.10;99.90;;;11.01;100.00;101679.06;4972627;28;20469;-77
2023/08/22 03:12:03;;;;;;;9.80;4.32;;;12.10;99.90;;;11.01;100.00;101663.25;4949108;28;20072;-77
2023/08/22 03:14:29;;;;;;;9.63;4.18;;;12.10;99.90;;;11.03;100.00;101665.84;4948932;28;20085;-77
2023/08/22 03:16:55;;;;;;;11.30;4.32;;;12.10;99.90;;;11.05;100.00;101664.03;4946384;28;20067;-76
2023/08/22 03:19:20;;;;;;;6.65;2.63;;;12.10;99.90;;;11.04;100.00;101678.13;4960927;28;20121;-77
2023/08/22 03:21:46;;;;;;;357.60;7.55;;;12.10;99.90;;;10.94;100.00;101692.53;4944652;28;20118;-76
2023/08/22 03:24:12;;;;;;;5.20;1.70;;;12.00;99.90;;;10.85;100.00;101685.78;4959474;28;20628;-77
2023/08/22 03:26:40;;;;;;;5.00;1.10;;;11.90;99.90;;;10.76;100.00;101693.97;4949518;28;20487;-77
2023/08/22 03:29:06;;;;;;;3.20;1.00;;;11.80;99.90;;;10.66;100.00;101693.41;4962963;28;20026;-76
2023/08/22 03:31:32;;;;;;;4.60;1.75;;;11.80;99.90;;;10.59;100.00;101705.03;4965086;28;20126;-77
2023/08/22 03:33:59;;;;;;;5.40;1.20;;;11.70;99.90;;;10.53;100.00;101694.69;4949541;28;20129;-77
2023/08/22 03:36:25;;;;;;;13.25;3.28;;;11.60;99.90;;;10.49;100.00;101687.81;4947902;28;20119;-78
2023/08/22 03:38:51;;;;;;;3.33;1.40;;;11.60;99.90;;;10.48;100.00;101688.72;4950708;28;20135;-76
2023/08/22 03:41:20;;;;;;;10.50;3.05;;;11.60;99.90;;;10.48;100.00;101688.72;4936848;28;20119;-77
2023/08/22 03:43:46;;;;;;;14.63;6.47;;;11.60;99.90;;;10.52;100.00;101685.06;4950582;28;20030;-76
2023/08/22 03:46:12;;;;;;;20.48;7.22;;;11.60;99.90;;;10.60;100.00;101683.91;4959629;28;20031;-77
2023/08/22 03:48:37;;;;;;;23.70;7.93;;;11.70;99.90;;;10.71;100.00;101691.47;4946390;28;20059;-77
2023/08/22 03:51:08;;;;;;;23.73;7.45;;;11.80;99.90;;;10.84;100.00;101692.81;4963517;28;20058;-76
2023/08/22 03:53:37;;;;;;;19.63;7.25;;;11.90;99.90;;;10.99;100.00;101680.03;4965194;28;20035;-77
2023/08/22 03:56:03;;;;;;;21.27;6.95;;;12.10;99.90;;;11.09;100.00;101682.31;4966978;28;20038;-76
2023/08/22 03:58:29;;;;;;;16.42;6.65;;;12.10;99.90;;;11.19;100.00;101674.97;4953343;28;20031;-77
2023/08/22 04:01:01;;;;;;;30.85;6.68;;;12.20;99.90;;;11.31;100.00;101670.19;4953040;28;20693;-77
2023/08/22 04:03:30;;;;;;;10.68;5.63;;;12.30;99.90;;;11.41;100.00;101664.53;4953811;28;20041;-76
2023/08/22 04:06:00;;;;;;;12.13;4.63;;;12.40;99.90;;;11.52;100.00;101653.63;4963866;28;20030;-77
2023/08/22 04:08:26;;;;;;;14.07;5.07;;;12.50;99.90;;;11.62;100.00;101641.81;4955354;28;20034;-77
2023/08/22 04:11:01;;;;;;;10.50;4.60;;;12.60;99.90;;;11.68;100.00;101619.63;4963191;28;20121;-78
2023/08/22 04:13:27;;;;;;;12.80;5.00;;;12.70;99.90;;;11.80;100.00;101603.34;4962404;28;20399;-77
2023/08/22 04:15:53;;;;;;;15.07;6.20;;;12.80;99.90;;;11.92;100.00;101619.66;4951304;28;20287;-77
2023/08/22 04:18:18;;;;;;;12.43;5.55;;;12.90;99.90;;;11.98;100.00;101627.34;4959777;28;20061;-77
2023/08/22 04:20:44;;;;;;;13.93;5.15;;;13.00;99.90;;;12.09;100.00;101633.94;4952805;28;20088;-77
2023/08/22 04:23:12;;;;;;;16.55;4.82;;;13.10;99.90;;;12.16;100.00;101618.72;4951987;28;20051;-77
2023/08/22 04:25:38;;;;;;;17.65;5.93;;;13.10;99.90;;;12.19;100.00;101592.19;4949656;28;20619;-76
2023/08/22 04:28:05;;;;;;;15.50;5.40;;;13.20;99.90;;;12.27;100.00;101576.06;4951513;28;20030;-76
2023/08/22 04:30:31;;;;;;;14.00;5.40;;;13.30;99.90;;;12.36;100.00;101558.97;4951717;28;20031;-76
2023/08/22 04:32:57;;;;;;;15.52;4.80;;;13.40;99.90;;;12.50;100.00;101567.19;4951259;28;20043;-76
2023/08/22 04:35:32;;;;;;;15.75;5.35;;;13.50;99.90;;;12.58;100.00;101569.53;4961648;28;20035;-78
2023/08/22 04:37:58;;;;;;;14.17;4.43;;;13.60;99.90;;;12.67;100.00;101577.06;4964954;28;20031;-76
2023/08/22 04:40:23;;;;;;;14.10;4.45;;;13.70;99.90;;;12.77;100.00;101588.97;4951735;28;20065;-76
2023/08/22 04:42:49;;;;;;;15.10;4.13;;;13.80;99.90;;;12.90;100.00;101594.59;4948038;28;20094;-76
2023/08/22 04:45:18;;;;;;;12.25;4.20;;;13.90;99.90;;;13.01;100.00;101596.78;4947352;28;20069;-76
2023/08/22 04:47:45;;;;;;;9.85;4.18;;;14.00;99.90;;;13.11;100.00;101598.09;4962806;28;20027;-76
2023/08/22 04:50:11;;;;;;;25.45;7.65;;;14.10;99.90;;;13.20;100.00;101607.44;4952649;28;20031;-76
2023/08/22 04:52:37;;;;;;;15.25;5.70;;;14.20;99.90;;;13.28;100.00;101614.13;4953199;28;20054;-76
2023/08/22 04:55:04;;;;;;;14.55;4.88;;;14.20;99.90;;;13.43;100.00;101624.94;4951835;28;20073;-77
2023/08/22 04:57:31;;;;;;;17.80;4.65;;;14.30;99.90;;;13.54;100.00;101628.84;4961423;28;20047;-76
2023/08/22 05:00:04;;;;;;;12.27;4.68;;;14.50;99.90;;;13.62;100.00;101622.34;4961156;28;20046;-77
2023/08/22 05:02:30;;;;;;;12.65;4.60;;;14.50;99.90;;;13.70;100.00;101615.78;4961117;28;20055;-76
2023/08/22 05:04:55;;;;;;;18.88;4.50;;;14.60;99.90;;;13.74;100.00;101620.00;4925377;28;1076320;-76
2023/08/22 05:07:22;;;;;;;14.48;5.30;;;14.60;99.90;;;13.67;100.00;101615.94;4960328;28;20114;-77
2023/08/22 05:09:49;;;;;;;13.30;4.80;;;14.60;99.90;;;13.76;100.00;101614.66;4952029;28;20077;-76
2023/08/22 05:12:15;;;;;;;10.05;4.15;;;14.70;99.90;;;13.81;100.00;101614.44;4953435;28;20035;-76
2023/08/22 05:14:41;;;;;;;15.77;6.60;;;14.70;99.90;;;13.78;100.00;101615.44;4949255;28;20523;-76
2023/08/22 05:17:07;;;;;;;15.85;4.80;;;14.70;99.90;;;13.83;100.00;101602.84;4961978;28;20039;-76
2023/08/22 05:19:32;;;;;;;14.57;4.03;;;14.70;99.90;;;13.83;100.00;101608.13;4949123;28;20556;-76
2023/08/22 05:21:58;;;;;;;25.00;6.28;;;14.80;99.90;;;13.82;100.00;101621.44;4952619;28;20748;-76
2023/08/22 05:24:24;;;;;;;14.80;5.68;;;14.80;99.90;;;13.82;100.00;101624.06;4962889;28;20073;-76
2023/08/22 05:26:50;;;;;;;15.90;5.68;;;14.80;99.90;;;13.86;100.00;101629.16;4949343;28;20118;-77
2023/08/22 05:29:20;;;;;;;15.48;5.63;;;14.80;99.90;;;13.94;100.00;101631.47;4949923;28;20079;-76
2023/08/22 05:31:46;;;;;;;14.93;5.60;;;14.90;99.90;;;14.03;100.00;101631.03;4952253;28;20039;-77
2023/08/22 05:34:12;;;;;;;15.65;5.68;;;14.90;99.90;;;14.09;100.00;101630.75;4950160;28;20093;-76
2023/08/22 05:36:38;;;;;;;16.95;5.22;;;15.00;99.90;;;14.19;100.00;101648.84;4961365;28;20086;-77
2023/08/22 05:39:04;;;;;;;21.90;7.15;;;15.10;99.90;;;14.29;100.00;101658.09;4958942;28;20073;-77
2023/08/22 05:41:29;;;;;;;19.60;6.43;;;15.20;99.90;;;14.47;100.00;101665.16;4950860;28;20058;-77
2023/08/22 05:43:55;;;;;;;16.20;5.22;;;15.30;99.90;;;14.71;100.00;101671.09;4950180;28;20115;-76
2023/08/22 05:46:21;;;;;;;8.63;4.15;;;15.50;99.90;;;15.03;100.00;101684.56;4934957;28;20121;-77
2023/08/22 05:48:47;;;;;;;15.30;4.68;;;15.80;99.90;;;15.49;100.00;101686.66;4951245;28;20137;-76
2023/08/22 05:51:15;;;;;;;13.50;3.80;;;16.20;99.90;;;16.66;100.00;101696.31;4951280;28;20032;-76
2023/08/22 05:53:41;;;;;;;14.77;4.07;;;16.70;99.90;;;17.09;96.10;101701.84;4953724;28;20483;-77
2023/08/22 05:56:07;;;;;;;12.75;3.50;;;17.40;99.90;;;19.84;87.38;101724.28;4961715;28;20046;-77
2023/08/22 05:58:34;;;;;;;11.05;3.60;;;18.40;99.90;;;19.97;80.19;101713.59;4948063;28;20039;-76
2023/08/22 06:01:09;;;;;;;9.27;2.80;;;19.30;99.90;;;22.18;73.78;101729.16;4951074;28;20073;-77
2023/08/22 06:03:38;;;;;;;9.35;3.03;;;20.70;99.90;;;23.41;66.26;101720.91;4960923;28;20057;-77
2023/08/22 06:06:06;;;;;;;9.93;3.25;;;21.20;99.90;;;21.72;68.87;101697.94;4947332;28;20040;-77
2023/08/22 06:08:32;;;;;;;12.82;2.90;;;21.10;99.90;;;20.44;71.60;101683.44;4951754;28;20034;-77
2023/08/22 06:10:57;;;;;;;15.75;3.28;;;20.70;99.90;;;19.59;74.31;101690.38;4961411;28;20109;-77
2023/08/22 06:13:24;;;;;;;9.73;3.35;;;20.20;99.90;;;19.01;76.58;101676.53;4961137;28;20515;-77
2023/08/22 06:15:50;;;;;;;12.13;4.10;;;19.70;99.90;;;18.54;79.21;101667.16;4934239;28;20576;-76
2023/08/22 06:18:15;;;;;;;12.75;3.58;;;19.40;99.90;;;18.38;80.46;101676.16;4948660;28;20042;-77
2023/08/22 06:20:41;;;;;;;12.50;3.67;;;19.20;99.90;;;18.20;82.31;101675.50;4961275;28;20114;-77
2023/08/22 06:23:07;;;;;;;12.52;3.85;;;19.00;99.90;;;18.10;83.36;101669.06;4950721;28;20054;-76
2023/08/22 06:25:33;;;;;;;11.98;3.50;;;18.90;99.90;;;18.03;84.40;101665.06;4962442;28;20089;-77
2023/08/22 06:28:02;;;;;;;11.63;3.20;;;18.70;99.90;;;17.82;85.33;101643.31;4948401;28;20026;-76
2023/08/22 06:30:28;;;;;;;17.08;3.88;;;18.70;99.90;;;17.82;85.61;101652.16;4962093;28;20039;-77
2023/08/22 06:32:53;;;;;;;12.43;3.20;;;18.60;99.90;;;17.80;85.72;101643.38;4950556;28;20113;-76
2023/08/22 06:35:19;;;;;;;12.15;3.70;;;18.50;99.90;;;17.70;86.18;101633.38;4951090;28;20070;-76
2023/08/22 06:37:45;;;;;;;14.93;3.80;;;18.50;99.90;;;17.67;86.69;101633.56;4961683;28;20051;-76
2023/08/22 06:40:14;;;;;;;11.82;3.67;;;18.40;99.90;;;17.59;87.54;101628.72;4947019;28;20492;-77
2023/08/22 06:42:42;;;;;;;12.18;4.22;;;18.40;99.90;;;17.48;88.20;101631.19;4961178;28;20039;-77
2023/08/22 06:45:08;;;;;;;17.98;3.97;;;18.30;99.90;;;17.46;88.94;101641.94;4950766;28;20507;-77
2023/08/22 06:47:34;;;;;;;11.80;3.20;;;18.30;99.90;;;17.51;89.00;101641.63;4959991;28;20054;-78
2023/08/22 06:50:00;;;;;;;9.43;4.00;;;18.30;99.90;;;17.56;89.75;101637.75;4967527;28;20035;-77
2023/08/22 06:52:26;;;;;;;12.65;3.92;;;18.30;99.90;;;17.54;90.30;101637.00;4951046;28;20035;-76
2023/08/22 06:55:00;;;;;;;15.02;4.40;;;18.40;99.90;;;17.66;90.12;101637.19;4950453;28;20049;-77
2023/08/22 06:57:26;;;;;;;8.82;3.47;;;18.40;99.90;;;17.76;89.78;101644.50;4947064;28;20499;-77
2023/08/22 06:59:52;;;;;;;10.93;3.30;;;18.50;99.90;;;18.00;89.80;101647.47;4965816;28;20035;-76
2023/08/22 07:02:18;;;;;;;10.57;3.47;;;18.70;99.90;;;18.20;88.59;101651.53;4960787;28;20027;-76
2023/08/22 07:04:43;;;;;;;12.60;3.20;;;18.80;99.90;;;18.36;88.10;101647.88;4948726;28;20066;-76
2023/08/22 07:07:12;;;;;;;14.82;3.58;;;19.00;99.90;;;18.45;88.03;101649.94;4959760;28;20474;-76
2023/08/22 07:09:38;;;;;;;14.80;3.50;;;19.10;99.90;;;18.55;87.44;101653.72;4948075;28;20031;-77
2023/08/22 07:12:04;;;;;;;14.05;3.80;;;19.20;99.90;;;18.72;86.49;101649.09;4951343;28;20375;-77
2023/08/22 07:14:30;;;;;;;14.45;3.47;;;19.40;99.90;;;18.98;85.23;101650.88;4949066;28;20117;-77
2023/08/22 07:16:55;;;;;;;20.05;3.50;;;19.60;99.90;;;19.44;83.56;101658.44;4949485;28;20110;-77
2023/08/22 07:19:21;;;;;;;16.10;3.50;;;20.10;99.90;;;20.74;79.88;101667.94;4958913;28;20069;-78
2023/08/22 07:21:47;;;;;;;30.75;3.20;;;21.10;99.90;;;22.13;74.04;101677.72;4951081;28;20106;-77
2023/08/22 07:24:14;;;;;;;16.75;3.13;;;22.20;99.90;;;22.61;71.89;101698.84;4967875;28;20041;-76
2023/08/22 07:26:42;;;;;;;10.85;3.00;;;22.80;99.90;;;23.00;70.61;101682.25;4938431;28;20030;-77
2023/08/22 07:29:08;;;;;;;12.50;2.72;;;23.20;99.90;;;23.29;67.67;101680.66;4955420;28;20042;-77
2023/08/22 07:31:34;;;;;;;12.45;2.88;;;23.90;99.90;;;24.98;64.14;101697.13;4952024;28;20099;-77
2023/08/22 07:34:00;;;;;;;8.90;2.63;;;25.10;99.90;;;26.57;60.19;101716.13;4971431;28;20561;-78
2023/08/22 07:36:25;;;;;;;10.32;2.70;;;26.50;99.90;;;27.95;56.68;101725.56;4966744;28;20505;-76
2023/08/22 07:39:01;;;;;;;11.10;2.60;;;28.00;99.90;;;29.77;53.01;101743.84;4953277;28;20114;-78
2023/08/22 07:41:26;;;;;;;9.85;2.40;;;29.60;99.90;;;30.87;50.03;101760.22;4958763;28;20031;-76
2023/08/22 07:43:52;;;;;;;14.20;2.50;;;30.50;99.90;;;30.74;49.43;101766.22;4956566;28;20110;-77
2023/08/22 07:46:19;;;;;;;8.63;2.17;;;31.20;99.90;;;31.96;48.11;101789.88;4968792;28;20146;-77
2023/08/22 07:48:47;;;;;;;9.02;2.30;;;31.90;99.90;;;32.32;46.83;101792.72;4953271;28;20018;-76
2023/08/22 07:51:13;;;;;;;10.60;1.90;;;32.60;99.60;;;33.10;45.06;101790.31;4953024;28;20035;-76
2023/08/22 07:53:39;;;;;;;8.98;1.80;;;33.10;95.80;;;33.08;44.41;101804.13;4967079;28;20050;-74
2023/08/22 07:56:06;;;;;;;10.95;2.20;;;33.50;97.00;;;33.04;43.96;101807.41;4966272;28;20069;-75
2023/08/22 07:58:31;;;;;;;9.80;1.80;;;33.50;95.90;;;33.09;43.33;101807.72;4966895;28;20041;-75
2023/08/22 08:00:57;;;;;;;14.95;1.95;;;33.40;96.40;;;33.37;42.42;101820.56;4955377;28;20558;-74
2023/08/22 08:03:23;;;;;;;11.05;1.75;;;33.70;96.10;;;33.48;43.20;101812.69;4950647;28;20161;-74
2023/08/22 08:05:51;;;;;;;10.23;2.10;;;34.00;95.50;;;34.08;41.82;101828.69;4955994;28;20062;-74
2023/08/22 08:08:17;;;;;;;10.35;2.35;;;34.50;95.20;;;34.72;40.86;101838.53;4952188;28;20039;-74
2023/08/22 08:10:43;;;;;;;9.85;2.45;;;35.00;93.40;;;34.86;39.86;101839.41;4966307;28;20443;-75
2023/08/22 08:13:09;;;;;;;18.40;2.00;;;35.20;92.70;;;34.83;39.90;101843.41;4949193;28;20059;-74
2023/08/22 08:15:34;;;;;;;10.50;1.73;;;34.90;91.60;;;33.67;40.71;101813.94;4952857;28;20031;-74
2023/08/22 08:18:01;;;;;;;7.93;1.80;;;34.10;91.90;;;32.36;41.95;101804.94;4953121;28;20457;-75
2023/08/22 08:20:27;;;;;;;7.93;2.10;;;33.00;92.80;;;31.12;44.17;101785.34;4940159;28;20081;-74
2023/08/22 08:22:55;;;;;;;4.95;1.55;;;32.00;92.60;;;31.08;44.71;101784.03;4956894;28;20030;-75
2023/08/22 08:25:21;;;;;;;5.97;1.50;;;31.90;93.80;;;31.42;43.82;101785.44;4956443;28;20034;-75
2023/08/22 08:27:50;;;;;;;9.07;1.55;;;31.80;93.90;;;30.91;44.26;101766.13;4967762;28;20031;-74
2023/08/22 08:30:16;;;;;;;7.80;1.70;;;31.30;94.40;;;30.27;44.98;101748.91;4952022;28;20110;-76
2023/08/22 08:32:49;;;;;;;6.28;1.60;;;30.90;94.60;;;30.11;45.77;101750.84;4948516;28;20023;-75
2023/08/22 08:35:14;;;;;;;10.90;1.50;;;30.60;96.00;;;30.33;45.63;101741.13;4963062;28;20030;-74
2023/08/22 08:37:40;;;;;;;4.95;1.20;;;30.80;95.50;;;30.78;44.68;101751.22;4952042;28;20050;-75
2023/08/22 08:40:08;;;;;;;10.13;1.40;;;31.10;95.10;;;31.00;44.55;101751.47;4965845;28;20093;-74
2023/08/22 08:42:38;;;;;;;5.57;1.30;;;31.00;94.40;;;30.45;44.64;101739.69;4952539;28;20643;-76
2023/08/22 08:45:05;;;;;;;4.65;1.33;;;30.80;94.30;;;30.08;44.84;101748.50;4951349;28;20117;-74
2023/08/22 08:47:36;;;;;;;5.28;1.40;;;30.60;93.80;;;30.19;44.27;101753.53;4951457;28;20038;-77
2023/08/22 08:50:06;;;;;;;5.00;1.17;;;30.50;94.30;;;30.40;43.37;101751.09;4953600;28;20126;-77
2023/08/22 08:52:32;;;;;;;7.25;1.10;;;30.60;92.70;;;30.36;42.47;101755.19;4966330;28;20066;-77
2023/08/22 08:55:00;;;;;;;5.28;1.27;;;30.50;91.70;;;30.04;42.10;101765.16;4961308;28;20039;-77
2023/08/22 08:57:29;;;;;;;6.30;1.20;;;30.20;91.50;;;29.90;42.23;101765.03;4948631;28;20050;-77
2023/08/22 08:59:55;;;;;;;6.75;1.08;;;30.00;91.80;;;29.73;42.08;101766.94;4949954;28;20047;-76
2023/08/22 09:02:21;;;;;;;4.22;0.93;;;29.90;91.50;;;29.49;42.32;101771.34;4951766;28;20033;-77
2023/08/22 09:04:49;;;;;;;5.47;1.52;;;29.70;92.00;;;29.14;42.47;101762.53;4950124;28;20478;-77
2023/08/22 09:07:18;;;;;;;2.67;1.00;;;29.50;91.80;;;28.81;42.90;101764.31;4948977;28;20608;-77
2023/08/22 09:09:44;;;;;;;3.95;1.08;;;29.20;91.80;;;28.50;43.32;101751.34;4946295;28;20067;-77
2023/08/22 09:12:10;;;;;;;3.88;1.00;;;28.90;92.20;;;28.23;43.63;101744.31;4961840;28;20066;-77
2023/08/22 09:14:48;;;;;;;3.42;1.00;;;28.70;92.70;;;27.97;44.02;101742.50;4948752;28;20101;-77
2023/08/22 09:17:20;;;;;;;6.63;1.10;;;28.50;94.80;;;27.91;45.20;101732.31;4952638;28;20031;-76
2023/08/22 09:19:45;;;;;;;3.00;1.10;;;28.40;93.20;;;27.98;44.29;101748.75;4949308;28;20047;-77
2023/08/22 09:22:17;;;;;;;2.78;0.90;;;28.40;93.40;;;28.08;44.85;101730.53;4961972;28;20050;-77
2023/08/22 09:24:54;;;;;;;3.90;0.90;;;28.50;90.90;;;28.11;41.99;101748.31;4961327;28;20602;-77
2023/08/22 09:27:32;;;;;;;6.38;1.10;;;28.50;93.20;;;28.17;44.71;101743.09;4949428;28;20043;-77
2023/08/22 09:30:08;;;;;;;5.38;0.95;;;28.50;92.40;;;28.15;42.75;101738.84;4960972;28;20459;-77
2023/08/22 09:32:34;;;;;;;4.80;0.65;;;28.60;90.80;;;28.21;41.75;101749.03;4953106;28;20051;-77
2023/08/22 09:35:02;;;;;;;4.18;0.88;;;28.70;90.50;;;28.31;42.01;101741.59;4963733;28;20033;-77
2023/08/22 09:37:40;;;;;;;5.53;1.00;;;28.80;91.50;;;28.33;42.43;101753.13;4962021;28;20046;-77
2023/08/22 09:40:14;;;;;;;4.30;0.90;;;28.90;92.30;;;28.49;42.29;101746.97;4953885;28;20454;-76
2023/08/22 09:42:41;;;;;;;5.85;0.90;;;28.90;92.50;;;28.54;43.69;101741.88;4947592;28;20517;-76
2023/08/22 09:45:09;;;;;;;4.05;0.77;;;29.00;91.80;;;28.63;43.04;101740.06;4951131;28;20061;-77
2023/08/22 09:47:42;;;;;;;7.68;1.10;;;29.10;92.90;;;28.77;44.00;101736.69;4961370;28;20030;-76
2023/08/22 09:50:13;;;;;;;6.60;0.80;;;29.20;91.70;;;28.74;42.76;101744.31;4952129;28;20031;-77
2023/08/22 09:52:40;;;;;;;2.78;0.65;;;29.20;91.70;;;28.77;42.40;101747.53;4949210;28;20026;-75
2023/08/22 09:55:10;;;;;;;5.55;1.00;;;29.30;91.00;;;28.79;41.56;101752.78;4949331;28;20042;-77
2023/08/22 09:57:38;;;;;;;3.70;1.00;;;29.30;91.20;;;28.92;41.29;101745.03;4958565;28;20039;-78
2023/08/22 10:00:05;;;;;;;3.80;0.90;;;29.40;90.40;;;29.00;40.39;101758.56;4961640;28;20031;-77
2023/08/22 10:02:36;;;;;;;9.00;0.80;;;29.50;90.60;;;29.13;40.96;101754.56;4946632;28;20066;-77
2023/08/22 10:05:03;;;;;;;2.92;0.90;;;29.60;90.30;;;29.21;40.79;101771.66;4950302;28;20759;-74
2023/08/22 10:07:32;;;;;;;7.78;1.00;;;29.60;90.20;;;29.12;40.23;101769.97;4952110;28;20034;-75